This is the latest recevied weather packets stored in our database for station/object N0KWA. If no packets are shown the sender has not sent any weather packets the latest 10 day(s).
| Time | Temp. | Humidity | Pressure | Rain* | Wind** | Luminosity | Snow |
|---|---|---|---|---|---|---|---|
| 1788114584 | 28.33° C | 89% | 1019.2 hPa | 0 mm | - | 26 W/m² | - |
| 1788114279 | 28.89° C | 87% | 1019.3 hPa | 0 mm | - | 17 W/m² | - |
| 1788113975 | 30.56° C | 81% | 1019.1 hPa | 0 mm | - | 17 W/m² | - |
| 1788113671 | 31.11° C | 80% | 1019.3 hPa | 0 mm | - | 11 W/m² | - |
| 1788113365 | 31.11° C | 80% | 1018.9 hPa | 0 mm | - | 65 W/m² | - |
| 1788113068 | 31.11° C | 80% | 1019.1 hPa | 0 mm | - | 29 W/m² | - |
| 1788112751 | 31.67° C | 78% | 1019.1 hPa | 0 mm | - | 68 W/m² | - |
| 1788112446 | 32.22° C | 74% | 1019.1 hPa | 0 mm | - | 46 W/m² | - |
| 1788112141 | 32.22° C | 75% | 1019.1 hPa | 0 mm | - | 65 W/m² | - |
| 1788111837 | 32.22° C | 72% | 1019.3 hPa | 0 mm | - | 36 W/m² | - |
| 1788111532 | 32.22° C | 71% | 1019.5 hPa | 0 mm | - | 37 W/m² | - |
| 1788111227 | 31.67° C | 72% | 1019.4 hPa | 0 mm | - | 568 W/m² | - |
| 1788110923 | 31.67° C | 73% | 1019.5 hPa | 0 mm | - | 320 W/m² | - |
| 1788110619 | 31.67° C | 76% | 1019.5 hPa | 0 mm | - | 52 W/m² | - |
| 1788110315 | 31.67° C | 75% | 1019.7 hPa | 0 mm | - | 98 W/m² | - |
| 1788110010 | 31.67° C | 78% | 1019.6 hPa | 0 mm | - | 235 W/m² | - |
| 1788109705 | 31.11° C | 77% | 1019.6 hPa | 0 mm | - | 54 W/m² | - |
| 1788109404 | 31.67° C | 78% | 1019.6 hPa | 0 mm | - | 41 W/m² | - |
| 1788109097 | 31.67° C | 77% | 1019.7 hPa | 0 mm | - | 41 W/m² | - |
| 1788108794 | 31.11° C | 77% | 1019.5 hPa | 0 mm | - | 43 W/m² | - |
| 1788108489 | 31.11° C | 81% | 1019.6 hPa | 0 mm | - | 49 W/m² | - |
| 1788108185 | 31.11° C | 79% | 1019.6 hPa | 0 mm | - | 35 W/m² | - |
| 1788107882 | 31.11° C | 77% | 1019.7 hPa | 0 mm | - | 22 W/m² | - |
| 1788107577 | 31.11° C | 80% | 1019.9 hPa | 0 mm | - | 81 W/m² | - |
| 1788107271 | 31.11° C | 78% | 1019.9 hPa | 0 mm | - | 41 W/m² | - |
* Rain latest hour (hover to see other rain measurements)
** Current wind speed in m/s (hover to see current wind gust speed)